sensor_id;sensor_type;location;lat;lon;timestamp;pressure;altitude;pressure_sealevel;temperature;humidity
69402;BME280;56589;51.992;5.924;2023-06-10T00:00:01;100995.72;;;21.45;43.61
69402;BME280;56589;51.992;5.924;2023-06-10T00:02:27;100983.38;;;21.44;43.71
69402;BME280;56589;51.992;5.924;2023-06-10T00:04:52;100992.56;;;21.42;43.53
69402;BME280;56589;51.992;5.924;2023-06-10T00:07:18;100993.88;;;21.38;43.57
69402;BME280;56589;51.992;5.924;2023-06-10T00:09:44;100993.34;;;21.34;43.55
69402;BME280;56589;51.992;5.924;2023-06-10T00:12:11;101000.03;;;21.30;43.68
69402;BME280;56589;51.992;5.924;2023-06-10T00:14:38;100997.69;;;21.27;43.46
69402;BME280;56589;51.992;5.924;2023-06-10T00:17:08;100996.34;;;21.23;43.71
69402;BME280;56589;51.992;5.924;2023-06-10T00:19:34;100995.81;;;21.19;43.71
69402;BME280;56589;51.992;5.924;2023-06-10T00:21:59;101002.47;;;21.15;43.26
69402;BME280;56589;51.992;5.924;2023-06-10T00:24:25;101005.66;;;21.11;43.44
69402;BME280;56589;51.992;5.924;2023-06-10T00:26:51;100994.59;;;21.06;43.39
69402;BME280;56589;51.992;5.924;2023-06-10T00:29:17;100992.22;;;21.03;43.10
69402;BME280;56589;51.992;5.924;2023-06-10T00:31:45;100994.56;;;20.97;43.35
69402;BME280;56589;51.992;5.924;2023-06-10T00:34:13;101000.56;;;20.91;43.42
69402;BME280;56589;51.992;5.924;2023-06-10T00:36:39;100987.69;;;20.87;43.66
69402;BME280;56589;51.992;5.924;2023-06-10T00:39:05;100996.00;;;20.84;43.39
69402;BME280;56589;51.992;5.924;2023-06-10T00:41:31;100990.47;;;20.77;43.06
69402;BME280;56589;51.992;5.924;2023-06-10T00:43:57;100992.75;;;20.72;43.25
69402;BME280;56589;51.992;5.924;2023-06-10T00:46:23;101001.28;;;20.67;43.10
69402;BME280;56589;51.992;5.924;2023-06-10T00:48:51;100999.72;;;20.65;43.53
69402;BME280;56589;51.992;5.924;2023-06-10T00:51:20;100997.41;;;20.62;43.34
69402;BME280;56589;51.992;5.924;2023-06-10T00:53:48;101000.53;;;20.57;43.25
69402;BME280;56589;51.992;5.924;2023-06-10T00:56:14;101003.50;;;20.54;43.14
69402;BME280;56589;51.992;5.924;2023-06-10T00:58:40;100999.31;;;20.52;43.21
69402;BME280;56589;51.992;5.924;2023-06-10T01:01:06;100993.31;;;20.50;43.49
69402;BME280;56589;51.992;5.924;2023-06-10T01:03:32;101002.63;;;20.45;42.99
69402;BME280;56589;51.992;5.924;2023-06-10T01:06:02;100996.75;;;20.42;43.31
69402;BME280;56589;51.992;5.924;2023-06-10T01:08:41;100993.88;;;20.35;43.39
69402;BME280;56589;51.992;5.924;2023-06-10T01:11:19;100995.22;;;20.31;43.11
69402;BME280;56589;51.992;5.924;2023-06-10T01:13:49;100993.97;;;20.26;43.13
69402;BME280;56589;51.992;5.924;2023-06-10T01:16:16;100998.75;;;20.22;43.25
69402;BME280;56589;51.992;5.924;2023-06-10T01:18:42;100998.25;;;20.18;43.65
69402;BME280;56589;51.992;5.924;2023-06-10T01:21:08;100999.38;;;20.16;43.66
69402;BME280;56589;51.992;5.924;2023-06-10T01:23:36;101001.53;;;20.12;43.52
69402;BME280;56589;51.992;5.924;2023-06-10T01:26:06;101001.84;;;20.09;43.75
69402;BME280;56589;51.992;5.924;2023-06-10T01:28:40;101011.00;;;20.07;43.35
69402;BME280;56589;51.992;5.924;2023-06-10T01:31:16;101009.94;;;20.00;43.53
69402;BME280;56589;51.992;5.924;2023-06-10T01:33:47;101013.72;;;19.97;43.71
69402;BME280;56589;51.992;5.924;2023-06-10T01:36:18;101011.38;;;19.94;43.78
69402;BME280;56589;51.992;5.924;2023-06-10T01:38:52;101013.50;;;19.90;43.65
69402;BME280;56589;51.992;5.924;2023-06-10T01:41:19;101013.84;;;19.87;44.03
69402;BME280;56589;51.992;5.924;2023-06-10T01:43:46;101005.28;;;19.84;43.85
69402;BME280;56589;51.992;5.924;2023-06-10T01:46:13;101009.25;;;19.80;43.73
69402;BME280;56589;51.992;5.924;2023-06-10T01:48:40;101006.91;;;19.77;43.85
69402;BME280;56589;51.992;5.924;2023-06-10T01:51:07;101011.84;;;19.72;44.15
69402;BME280;56589;51.992;5.924;2023-06-10T01:53:33;101013.84;;;19.70;44.35
69402;BME280;56589;51.992;5.924;2023-06-10T01:56:01;101011.63;;;19.65;44.15
69402;BME280;56589;51.992;5.924;2023-06-10T01:58:27;101009.41;;;19.60;44.79
69402;BME280;56589;51.992;5.924;2023-06-10T02:00:53;101016.56;;;19.60;44.32
69402;BME280;56589;51.992;5.924;2023-06-10T02:03:18;101011.53;;;19.57;44.32
69402;BME280;56589;51.992;5.924;2023-06-10T02:05:44;101010.84;;;19.55;44.96
69402;BME280;56589;51.992;5.924;2023-06-10T02:08:10;101017.31;;;19.52;44.87
69402;BME280;56589;51.992;5.924;2023-06-10T02:10:36;101015.09;;;19.48;44.84
69402;BME280;56589;51.992;5.924;2023-06-10T02:13:04;101008.34;;;19.44;45.27
69402;BME280;56589;51.992;5.924;2023-06-10T02:15:30;101014.00;;;19.40;45.48
69402;BME280;56589;51.992;5.924;2023-06-10T02:17:56;101009.81;;;19.38;45.58
69402;BME280;56589;51.992;5.924;2023-06-10T02:20:22;101014.28;;;19.37;45.70
69402;BME280;56589;51.992;5.924;2023-06-10T02:22:48;101020.91;;;19.33;45.94
69402;BME280;56589;51.992;5.924;2023-06-10T02:25:13;101016.72;;;19.31;46.17
69402;BME280;56589;51.992;5.924;2023-06-10T02:27:39;101010.88;;;19.27;45.99
69402;BME280;56589;51.992;5.924;2023-06-10T02:30:09;101009.19;;;19.26;46.12
69402;BME280;56589;51.992;5.924;2023-06-10T02:32:36;101014.78;;;19.23;46.73
69402;BME280;56589;51.992;5.924;2023-06-10T02:35:02;101012.56;;;19.19;46.67
69402;BME280;56589;51.992;5.924;2023-06-10T02:37:28;101019.72;;;19.18;47.10
69402;BME280;56589;51.992;5.924;2023-06-10T02:39:54;101013.03;;;19.14;47.17
69402;BME280;56589;51.992;5.924;2023-06-10T02:42:19;101017.66;;;19.12;47.22
69402;BME280;56589;51.992;5.924;2023-06-10T02:44:45;101019.63;;;19.10;47.12
69402;BME280;56589;51.992;5.924;2023-06-10T02:47:14;101018.13;;;19.07;47.33
69402;BME280;56589;51.992;5.924;2023-06-10T02:49:39;101023.72;;;19.04;47.65
69402;BME280;56589;51.992;5.924;2023-06-10T02:52:06;101026.69;;;19.01;47.81
69402;BME280;56589;51.992;5.924;2023-06-10T02:54:32;101026.97;;;18.98;47.81
69402;BME280;56589;51.992;5.924;2023-06-10T02:56:58;101030.91;;;18.94;48.01
69402;BME280;56589;51.992;5.924;2023-06-10T02:59:24;101028.25;;;18.94;47.84
69402;BME280;56589;51.992;5.924;2023-06-10T03:01:49;101026.56;;;18.93;47.88
69402;BME280;56589;51.992;5.924;2023-06-10T03:04:18;101021.56;;;18.90;48.58
69402;BME280;56589;51.992;5.924;2023-06-10T03:06:43;101027.00;;;18.89;48.26
69402;BME280;56589;51.992;5.924;2023-06-10T03:09:09;101029.28;;;18.83;48.70
69402;BME280;56589;51.992;5.924;2023-06-10T03:11:35;101027.47;;;18.84;48.92
69402;BME280;56589;51.992;5.924;2023-06-10T03:14:01;101024.09;;;18.82;48.70
69402;BME280;56589;51.992;5.924;2023-06-10T03:16:27;101021.72;;;18.79;48.96
69402;BME280;56589;51.992;5.924;2023-06-10T03:18:53;101025.22;;;18.79;48.83
69402;BME280;56589;51.992;5.924;2023-06-10T03:21:22;101027.06;;;18.79;49.22
69402;BME280;56589;51.992;5.924;2023-06-10T03:23:48;101031.69;;;18.77;49.40
69402;BME280;56589;51.992;5.924;2023-06-10T03:26:14;101032.81;;;18.74;49.36
69402;BME280;56589;51.992;5.924;2023-06-10T03:28:40;101029.31;;;18.74;49.17
69402;BME280;56589;51.992;5.924;2023-06-10T03:31:05;101032.41;;;18.69;49.31
69402;BME280;56589;51.992;5.924;2023-06-10T03:33:31;101038.69;;;18.68;49.81
69402;BME280;56589;51.992;5.924;2023-06-10T03:35:57;101038.03;;;18.66;49.56
69402;BME280;56589;51.992;5.924;2023-06-10T03:38:26;101028.63;;;18.62;49.95
69402;BME280;56589;51.992;5.924;2023-06-10T03:40:52;101030.03;;;18.56;50.12
69402;BME280;56589;51.992;5.924;2023-06-10T03:43:17;101032.00;;;18.54;50.28
69402;BME280;56589;51.992;5.924;2023-06-10T03:45:43;101034.81;;;18.53;50.03
69402;BME280;56589;51.992;5.924;2023-06-10T03:48:09;101035.78;;;18.52;49.99
69402;BME280;56589;51.992;5.924;2023-06-10T03:50:35;101035.09;;;18.50;50.35
69402;BME280;56589;51.992;5.924;2023-06-10T03:53:01;101035.22;;;18.48;50.18
69402;BME280;56589;51.992;5.924;2023-06-10T03:55:29;101042.53;;;18.46;50.80
69402;BME280;56589;51.992;5.924;2023-06-10T03:57:55;101042.78;;;18.43;50.59
69402;BME280;56589;51.992;5.924;2023-06-10T04:00:21;101045.44;;;18.43;50.76
69402;BME280;56589;51.992;5.924;2023-06-10T04:02:47;101043.94;;;18.41;50.54
69402;BME280;56589;51.992;5.924;2023-06-10T04:05:13;101045.75;;;18.40;50.91
69402;BME280;56589;51.992;5.924;2023-06-10T04:07:40;101042.25;;;18.40;50.98
69402;BME280;56589;51.992;5.924;2023-06-10T04:10:07;101046.72;;;18.39;51.22
69402;BME280;56589;51.992;5.924;2023-06-10T04:12:37;101051.19;;;18.39;51.41
69402;BME280;56589;51.992;5.924;2023-06-10T04:15:04;101047.44;;;18.41;51.77
69402;BME280;56589;51.992;5.924;2023-06-10T04:17:31;101048.69;;;18.47;51.65
69402;BME280;56589;51.992;5.924;2023-06-10T04:19:57;101057.19;;;18.50;51.11
69402;BME280;56589;51.992;5.924;2023-06-10T04:22:24;101054.69;;;18.49;51.46
69402;BME280;56589;51.992;5.924;2023-06-10T04:24:50;101057.19;;;18.50;51.71
69402;BME280;56589;51.992;5.924;2023-06-10T04:27:15;101063.91;;;18.54;51.53
69402;BME280;56589;51.992;5.924;2023-06-10T04:29:44;101057.91;;;18.62;51.72
69402;BME280;56589;51.992;5.924;2023-06-10T04:32:10;101064.44;;;18.77;51.21
69402;BME280;56589;51.992;5.924;2023-06-10T04:34:36;101066.91;;;18.89;51.06
69402;BME280;56589;51.992;5.924;2023-06-10T04:37:03;101066.63;;;19.01;51.49
69402;BME280;56589;51.992;5.924;2023-06-10T04:39:29;101070.19;;;19.37;50.82
69402;BME280;56589;51.992;5.924;2023-06-10T04:41:55;101071.09;;;19.83;50.40
69402;BME280;56589;51.992;5.924;2023-06-10T04:44:20;101073.44;;;20.22;49.75
69402;BME280;56589;51.992;5.924;2023-06-10T04:46:49;101075.31;;;20.48;48.91
69402;BME280;56589;51.992;5.924;2023-06-10T04:49:15;101068.84;;;20.76;48.54
69402;BME280;56589;51.992;5.924;2023-06-10T04:51:41;101077.34;;;21.06;48.04
69402;BME280;56589;51.992;5.924;2023-06-10T04:54:07;101074.81;;;21.30;47.57
69402;BME280;56589;51.992;5.924;2023-06-10T04:56:33;101071.72;;;21.51;47.09
69402;BME280;56589;51.992;5.924;2023-06-10T04:58:59;101085.31;;;21.74;46.74
69402;BME280;56589;51.992;5.924;2023-06-10T05:01:27;101080.50;;;21.86;46.46
69402;BME280;56589;51.992;5.924;2023-06-10T05:03:56;101077.03;;;22.18;46.08
69402;BME280;56589;51.992;5.924;2023-06-10T05:06:21;101083.19;;;22.51;45.27
69402;BME280;56589;51.992;5.924;2023-06-10T05:08:47;101080.38;;;22.69;44.76
69402;BME280;56589;51.992;5.924;2023-06-10T05:11:13;101081.53;;;22.74;44.92
69402;BME280;56589;51.992;5.924;2023-06-10T05:13:39;101087.00;;;22.97;44.26
69402;BME280;56589;51.992;5.924;2023-06-10T05:16:04;101081.22;;;23.25;43.71
69402;BME280;56589;51.992;5.924;2023-06-10T05:18:30;101086.06;;;23.37;43.48
69402;BME280;56589;51.992;5.924;2023-06-10T05:20:59;101085.25;;;23.60;43.11
69402;BME280;56589;51.992;5.924;2023-06-10T05:23:24;101080.50;;;23.70;42.90
69402;BME280;56589;51.992;5.924;2023-06-10T05:25:50;101085.63;;;23.80;42.59
69402;BME280;56589;51.992;5.924;2023-06-10T05:28:16;101082.78;;;23.81;42.24
69402;BME280;56589;51.992;5.924;2023-06-10T05:30:42;101087.59;;;23.86;42.33
69402;BME280;56589;51.992;5.924;2023-06-10T05:33:08;101089.31;;;24.10;42.06
69402;BME280;56589;51.992;5.924;2023-06-10T05:35:33;101087.09;;;24.36;41.50
69402;BME280;56589;51.992;5.924;2023-06-10T05:38:02;101085.75;;;24.55;40.78
69402;BME280;56589;51.992;5.924;2023-06-10T05:40:28;101089.47;;;24.69;41.13
69402;BME280;56589;51.992;5.924;2023-06-10T05:42:54;101087.03;;;24.97;40.45
69402;BME280;56589;51.992;5.924;2023-06-10T05:45:20;101099.34;;;25.06;40.11
69402;BME280;56589;51.992;5.924;2023-06-10T05:47:46;101091.00;;;25.16;39.40
69402;BME280;56589;51.992;5.924;2023-06-10T05:50:11;101091.81;;;25.31;39.98
69402;BME280;56589;51.992;5.924;2023-06-10T05:52:37;101088.41;;;25.52;39.37
69402;BME280;56589;51.992;5.924;2023-06-10T05:55:06;101090.56;;;25.63;38.79
69402;BME280;56589;51.992;5.924;2023-06-10T05:57:33;101092.97;;;25.73;38.53
69402;BME280;56589;51.992;5.924;2023-06-10T06:00:00;101087.59;;;25.94;38.00
69402;BME280;56589;51.992;5.924;2023-06-10T06:02:26;101091.63;;;26.05;38.15
69402;BME280;56589;51.992;5.924;2023-06-10T06:04:51;101093.50;;;26.04;37.99
69402;BME280;56589;51.992;5.924;2023-06-10T06:07:17;101093.59;;;26.33;37.77
69402;BME280;56589;51.992;5.924;2023-06-10T06:09:43;101088.78;;;26.56;37.09
69402;BME280;56589;51.992;5.924;2023-06-10T06:12:12;101092.19;;;26.65;36.63
69402;BME280;56589;51.992;5.924;2023-06-10T06:14:38;101092.25;;;26.71;36.83
69402;BME280;56589;51.992;5.924;2023-06-10T06:17:04;101094.88;;;26.93;36.35
69402;BME280;56589;51.992;5.924;2023-06-10T06:19:30;101093.41;;;26.90;36.10
69402;BME280;56589;51.992;5.924;2023-06-10T06:21:56;101093.16;;;26.85;36.54
69402;BME280;56589;51.992;5.924;2023-06-10T06:24:22;101088.66;;;26.92;36.44
69402;BME280;56589;51.992;5.924;2023-06-10T06:26:48;101088.09;;;27.03;35.28
69402;BME280;56589;51.992;5.924;2023-06-10T06:29:19;101086.25;;;27.10;36.26
69402;BME280;56589;51.992;5.924;2023-06-10T06:31:45;101094.31;;;27.38;36.00
69402;BME280;56589;51.992;5.924;2023-06-10T06:34:11;101089.81;;;27.59;35.54
69402;BME280;56589;51.992;5.924;2023-06-10T06:36:36;101098.63;;;27.87;35.47
69402;BME280;56589;51.992;5.924;2023-06-10T06:39:02;101098.50;;;28.22;34.71
69402;BME280;56589;51.992;5.924;2023-06-10T06:41:28;101111.78;;;28.37;34.37
69402;BME280;56589;51.992;5.924;2023-06-10T06:43:54;101107.41;;;28.42;34.02
69402;BME280;56589;51.992;5.924;2023-06-10T06:46:23;101105.13;;;28.39;33.80
69402;BME280;56589;51.992;5.924;2023-06-10T06:48:49;101105.78;;;28.28;34.03
69402;BME280;56589;51.992;5.924;2023-06-10T06:51:15;101105.13;;;28.39;33.96
69402;BME280;56589;51.992;5.924;2023-06-10T06:53:40;101113.44;;;28.38;33.82
69402;BME280;56589;51.992;5.924;2023-06-10T06:56:06;101112.63;;;28.31;33.32
69402;BME280;56589;51.992;5.924;2023-06-10T06:58:32;101106.59;;;28.35;34.23
69402;BME280;56589;51.992;5.924;2023-06-10T07:00:58;101106.41;;;28.57;33.72
69402;BME280;56589;51.992;5.924;2023-06-10T07:03:26;101109.94;;;28.77;33.65
69402;BME280;56589;51.992;5.924;2023-06-10T07:05:52;101111.13;;;28.94;32.90
69402;BME280;56589;51.992;5.924;2023-06-10T07:08:18;101113.03;;;28.74;32.76
69402;BME280;56589;51.992;5.924;2023-06-10T07:10:44;101112.44;;;28.72;33.07
69402;BME280;56589;51.992;5.924;2023-06-10T07:13:09;101106.81;;;28.67;33.04
69402;BME280;56589;51.992;5.924;2023-06-10T07:15:35;101108.91;;;28.72;33.24
69402;BME280;56589;51.992;5.924;2023-06-10T07:18:01;101113.63;;;28.96;32.99
69402;BME280;56589;51.992;5.924;2023-06-10T07:20:29;101106.72;;;29.20;32.66
69402;BME280;56589;51.992;5.924;2023-06-10T07:22:55;101110.81;;;29.36;32.05
69402;BME280;56589;51.992;5.924;2023-06-10T07:25:21;101106.28;;;29.23;31.92
69402;BME280;56589;51.992;5.924;2023-06-10T07:27:47;101118.78;;;29.17;32.18
69402;BME280;56589;51.992;5.924;2023-06-10T07:30:13;101104.00;;;29.27;32.03
69402;BME280;56589;51.992;5.924;2023-06-10T07:32:39;101121.81;;;29.47;32.33
69402;BME280;56589;51.992;5.924;2023-06-10T07:35:08;101116.50;;;29.72;31.92
69402;BME280;56589;51.992;5.924;2023-06-10T07:37:37;101120.75;;;29.93;30.96
69402;BME280;56589;51.992;5.924;2023-06-10T07:40:04;101117.25;;;30.18;31.30
69402;BME280;56589;51.992;5.924;2023-06-10T07:42:31;101120.56;;;30.51;30.85
69402;BME280;56589;51.992;5.924;2023-06-10T07:44:57;101120.38;;;30.71;30.57
69402;BME280;56589;51.992;5.924;2023-06-10T07:47:23;101118.03;;;30.81;30.58
69402;BME280;56589;51.992;5.924;2023-06-10T07:49:49;101120.00;;;30.93;29.99
69402;BME280;56589;51.992;5.924;2023-06-10T07:52:14;101121.28;;;31.08;30.10
69402;BME280;56589;51.992;5.924;2023-06-10T07:54:43;101114.94;;;31.33;29.63
69402;BME280;56589;51.992;5.924;2023-06-10T07:57:09;101118.06;;;31.37;29.28
69402;BME280;56589;51.992;5.924;2023-06-10T07:59:34;101127.53;;;31.46;29.43
69402;BME280;56589;51.992;5.924;2023-06-10T08:02:00;101120.44;;;31.63;29.24
69402;BME280;56589;51.992;5.924;2023-06-10T08:04:26;101122.19;;;31.87;28.63
69402;BME280;56589;51.992;5.924;2023-06-10T08:06:52;101114.19;;;31.93;28.83
69402;BME280;56589;51.992;5.924;2023-06-10T08:09:17;101126.75;;;32.05;28.43
69402;BME280;56589;51.992;5.924;2023-06-10T08:11:46;101121.19;;;32.00;28.40
69402;BME280;56589;51.992;5.924;2023-06-10T08:14:12;101119.94;;;31.84;28.13
69402;BME280;56589;51.992;5.924;2023-06-10T08:16:38;101130.34;;;31.87;28.34
69402;BME280;56589;51.992;5.924;2023-06-10T08:19:04;101123.56;;;31.78;28.71
69402;BME280;56589;51.992;5.924;2023-06-10T08:21:29;101131.44;;;31.68;28.19
69402;BME280;56589;51.992;5.924;2023-06-10T08:23:55;101129.16;;;31.35;28.24
69402;BME280;56589;51.992;5.924;2023-06-10T08:26:21;101128.81;;;31.25;28.63
69402;BME280;56589;51.992;5.924;2023-06-10T08:28:49;101130.03;;;31.29;28.25
69402;BME280;56589;51.992;5.924;2023-06-10T08:31:15;101129.34;;;31.15;28.59
69402;BME280;56589;51.992;5.924;2023-06-10T08:33:41;101130.16;;;31.16;28.51
69402;BME280;56589;51.992;5.924;2023-06-10T08:36:07;101127.84;;;31.19;28.69
69402;BME280;56589;51.992;5.924;2023-06-10T08:38:33;101125.97;;;31.38;28.29
69402;BME280;56589;51.992;5.924;2023-06-10T08:40:59;101136.47;;;31.65;28.37
69402;BME280;56589;51.992;5.924;2023-06-10T08:43:32;101131.34;;;31.75;27.40
69402;BME280;56589;51.992;5.924;2023-06-10T08:46:09;101129.53;;;31.87;27.94
69402;BME280;56589;51.992;5.924;2023-06-10T08:48:37;101131.06;;;31.95;27.67
69402;BME280;56589;51.992;5.924;2023-06-10T08:51:09;101121.78;;;31.84;27.45
69402;BME280;56589;51.992;5.924;2023-06-10T08:53:38;101128.88;;;31.73;27.16
69402;BME280;56589;51.992;5.924;2023-06-10T08:56:12;101130.31;;;31.57;27.68
69402;BME280;56589;51.992;5.924;2023-06-10T08:58:41;101125.53;;;31.41;28.33
69402;BME280;56589;51.992;5.924;2023-06-10T09:01:10;101126.78;;;31.57;27.61
69402;BME280;56589;51.992;5.924;2023-06-10T09:03:37;101127.84;;;31.56;27.51
69402;BME280;56589;51.992;5.924;2023-06-10T09:06:05;101132.78;;;31.59;27.77
69402;BME280;56589;51.992;5.924;2023-06-10T09:08:31;101125.53;;;31.41;27.54
69402;BME280;56589;51.992;5.924;2023-06-10T09:10:58;101123.75;;;31.10;27.70
69402;BME280;56589;51.992;5.924;2023-06-10T09:13:25;101117.66;;;31.15;27.86
69402;BME280;56589;51.992;5.924;2023-06-10T09:15:51;101128.50;;;31.33;27.70
69402;BME280;56589;51.992;5.924;2023-06-10T09:18:19;101128.91;;;31.55;27.86
69402;BME280;56589;51.992;5.924;2023-06-10T09:20:45;101126.81;;;31.69;27.83
69402;BME280;56589;51.992;5.924;2023-06-10T09:23:12;101122.69;;;31.66;27.49
69402;BME280;56589;51.992;5.924;2023-06-10T09:25:39;101131.00;;;31.83;27.55
69402;BME280;56589;51.992;5.924;2023-06-10T09:28:12;101129.09;;;32.02;26.81
69402;BME280;56589;51.992;5.924;2023-06-10T09:30:39;101120.97;;;32.13;27.45
69402;BME280;56589;51.992;5.924;2023-06-10T09:33:10;101124.66;;;32.19;26.61
69402;BME280;56589;51.992;5.924;2023-06-10T09:35:45;101123.75;;;31.95;26.38
69402;BME280;56589;51.992;5.924;2023-06-10T09:38:13;101127.06;;;31.67;27.00
69402;BME280;56589;51.992;5.924;2023-06-10T09:40:49;101121.53;;;31.74;27.12
69402;BME280;56589;51.992;5.924;2023-06-10T09:43:15;101116.91;;;31.93;26.93
69402;BME280;56589;51.992;5.924;2023-06-10T09:45:41;101126.50;;;31.77;26.76
69402;BME280;56589;51.992;5.924;2023-06-10T09:48:07;101119.94;;;31.54;26.51
69402;BME280;56589;51.992;5.924;2023-06-10T09:50:33;101112.88;;;31.35;26.85
69402;BME280;56589;51.992;5.924;2023-06-10T09:53:01;101116.38;;;31.54;27.30
69402;BME280;56589;51.992;5.924;2023-06-10T09:55:28;101120.47;;;31.75;26.76
69402;BME280;56589;51.992;5.924;2023-06-10T09:57:58;101116.69;;;31.76;26.55
69402;BME280;56589;51.992;5.924;2023-06-10T10:00:24;101110.91;;;31.72;26.56
69402;BME280;56589;51.992;5.924;2023-06-10T10:02:52;101120.44;;;31.93;26.56
69402;BME280;56589;51.992;5.924;2023-06-10T10:05:19;101114.09;;;31.99;26.27
69402;BME280;56589;51.992;5.924;2023-06-10T10:07:47;101114.00;;;32.06;26.27
69402;BME280;56589;51.992;5.924;2023-06-10T10:10:18;101121.22;;;32.24;25.56
69402;BME280;56589;51.992;5.924;2023-06-10T10:12:46;101115.66;;;32.19;25.83
69402;BME280;56589;51.992;5.924;2023-06-10T10:15:16;101110.00;;;32.20;25.64
69402;BME280;56589;51.992;5.924;2023-06-10T10:17:47;101106.72;;;32.30;25.53
69402;BME280;56589;51.992;5.924;2023-06-10T10:20:20;101113.03;;;32.54;25.32
69402;BME280;56589;51.992;5.924;2023-06-10T10:22:52;101112.53;;;32.57;24.71
69402;BME280;56589;51.992;5.924;2023-06-10T10:25:28;101110.31;;;32.42;24.37
69402;BME280;56589;51.992;5.924;2023-06-10T10:28:04;101109.28;;;32.25;24.54
69402;BME280;56589;51.992;5.924;2023-06-10T10:30:39;101115.88;;;32.05;24.61
69402;BME280;56589;51.992;5.924;2023-06-10T10:33:12;101100.97;;;31.96;24.79
69402;BME280;56589;51.992;5.924;2023-06-10T10:35:43;101110.81;;;31.79;25.25
69402;BME280;56589;51.992;5.924;2023-06-10T10:38:11;101102.84;;;31.66;25.07
69402;BME280;56589;51.992;5.924;2023-06-10T10:40:40;101098.66;;;31.51;24.82
69402;BME280;56589;51.992;5.924;2023-06-10T10:43:08;101105.91;;;31.39;24.83
69402;BME280;56589;51.992;5.924;2023-06-10T10:45:35;101092.03;;;31.29;25.14
69402;BME280;56589;51.992;5.924;2023-06-10T10:48:07;101098.16;;;31.24;24.10
69402;BME280;56589;51.992;5.924;2023-06-10T10:50:34;101091.81;;;30.94;24.20
69402;BME280;56589;51.992;5.924;2023-06-10T10:53:02;101094.72;;;30.74;24.87
69402;BME280;56589;51.992;5.924;2023-06-10T10:55:29;101096.81;;;30.72;24.86
69402;BME280;56589;51.992;5.924;2023-06-10T10:57:59;101096.56;;;30.80;24.85
69402;BME280;56589;51.992;5.924;2023-06-10T11:00:29;101088.72;;;30.90;24.22
69402;BME280;56589;51.992;5.924;2023-06-10T11:02:58;101089.03;;;30.82;24.23
69402;BME280;56589;51.992;5.924;2023-06-10T11:05:36;101085.28;;;30.76;24.18
69402;BME280;56589;51.992;5.924;2023-06-10T11:08:03;101090.13;;;30.74;24.10
69402;BME280;56589;51.992;5.924;2023-06-10T11:10:30;101088.16;;;30.63;24.03
69402;BME280;56589;51.992;5.924;2023-06-10T11:13:00;101082.94;;;30.62;24.23
69402;BME280;56589;51.992;5.924;2023-06-10T11:15:30;101079.56;;;30.66;24.44
69402;BME280;56589;51.992;5.924;2023-06-10T11:20:56;101081.81;;;30.69;24.32
69402;BME280;56589;51.992;5.924;2023-06-10T11:23:45;101073.03;;;30.74;24.06
69402;BME280;56589;51.992;5.924;2023-06-10T11:26:15;101066.22;;;30.65;24.13
69402;BME280;56589;51.992;5.924;2023-06-10T11:29:05;101066.00;;;30.66;23.80
69402;BME280;56589;51.992;5.924;2023-06-10T11:31:39;101062.53;;;30.59;24.33
69402;BME280;56589;51.992;5.924;2023-06-10T11:34:07;101072.31;;;30.60;24.10
69402;BME280;56589;51.992;5.924;2023-06-10T11:36:36;101067.53;;;30.62;24.21
69402;BME280;56589;51.992;5.924;2023-06-10T11:39:05;101076.41;;;30.69;24.43
69402;BME280;56589;51.992;5.924;2023-06-10T11:41:33;101068.19;;;30.76;23.93
69402;BME280;56589;51.992;5.924;2023-06-10T11:44:04;101066.56;;;30.75;24.48
69402;BME280;56589;51.992;5.924;2023-06-10T11:46:34;101074.41;;;30.83;24.43
69402;BME280;56589;51.992;5.924;2023-06-10T11:49:01;101069.44;;;30.80;24.22
69402;BME280;56589;51.992;5.924;2023-06-10T11:51:29;101068.25;;;30.94;24.39
69402;BME280;56589;51.992;5.924;2023-06-10T11:53:58;101072.00;;;30.93;24.15
69402;BME280;56589;51.992;5.924;2023-06-10T11:56:24;101072.34;;;30.78;24.58
69402;BME280;56589;51.992;5.924;2023-06-10T11:58:53;101064.91;;;30.74;24.40
69402;BME280;56589;51.992;5.924;2023-06-10T12:01:25;101070.47;;;30.79;24.16
69402;BME280;56589;51.992;5.924;2023-06-10T12:03:59;101065.69;;;30.81;23.60
69402;BME280;56589;51.992;5.924;2023-06-10T12:06:26;101064.38;;;30.83;23.60
69402;BME280;56589;51.992;5.924;2023-06-10T12:08:53;101051.09;;;30.75;23.61
69402;BME280;56589;51.992;5.924;2023-06-10T12:11:19;101060.41;;;30.86;23.86
69402;BME280;56589;51.992;5.924;2023-06-10T12:13:46;101050.31;;;30.93;23.83
69402;BME280;56589;51.992;5.924;2023-06-10T12:16:13;101054.00;;;30.99;24.36
69402;BME280;56589;51.992;5.924;2023-06-10T12:18:43;101055.81;;;31.05;23.69
69402;BME280;56589;51.992;5.924;2023-06-10T12:21:16;101042.84;;;30.89;23.77
69402;BME280;56589;51.992;5.924;2023-06-10T12:24:02;101046.97;;;30.91;23.79
69402;BME280;56589;51.992;5.924;2023-06-10T12:26:41;101041.28;;;30.99;23.82
69402;BME280;56589;51.992;5.924;2023-06-10T12:29:26;101036.75;;;31.12;23.95
69402;BME280;56589;51.992;5.924;2023-06-10T12:31:59;101035.28;;;31.09;24.06
69402;BME280;56589;51.992;5.924;2023-06-10T12:34:36;101038.53;;;31.18;24.25
69402;BME280;56589;51.992;5.924;2023-06-10T12:37:04;101031.28;;;31.30;23.95
69402;BME280;56589;51.992;5.924;2023-06-10T12:39:31;101030.81;;;31.33;24.16
69402;BME280;56589;51.992;5.924;2023-06-10T12:41:57;101039.41;;;31.48;23.95
69402;BME280;56589;51.992;5.924;2023-06-10T12:44:34;101027.84;;;31.53;23.43
69402;BME280;56589;51.992;5.924;2023-06-10T12:47:01;101026.53;;;31.44;23.62
69402;BME280;56589;51.992;5.924;2023-06-10T12:49:35;101030.75;;;31.40;23.45
69402;BME280;56589;51.992;5.924;2023-06-10T12:52:01;101037.97;;;31.46;23.33
69402;BME280;56589;51.992;5.924;2023-06-10T12:54:27;101058.28;;;31.43;23.00